createdAt,value
2022-08-20T00:01:42.840Z,75.62
2022-08-20T00:04:14.311Z,75.74
2022-08-20T00:06:46.082Z,75.86
2022-08-20T00:09:16.135Z,76.16
2022-08-20T00:11:45.368Z,76.29
2022-08-20T00:14:14.758Z,76.37
2022-08-20T00:16:46.569Z,76.47
2022-08-20T00:19:17.223Z,76.54
2022-08-20T00:21:47.280Z,76.64
2022-08-20T00:24:19.106Z,76.83
2022-08-20T00:26:52.495Z,76.94
2022-08-20T00:29:20.375Z,76.87
2022-08-20T00:31:50.702Z,76.83
2022-08-20T00:34:20.157Z,76.86
2022-08-20T00:36:49.848Z,76.83
2022-08-20T00:39:20.010Z,76.83
2022-08-20T00:41:51.676Z,76.85
2022-08-20T00:44:22.264Z,76.96
2022-08-20T00:46:52.141Z,77.19
2022-08-20T00:49:28.152Z,77.48
2022-08-20T00:52:12.411Z,77.79
2022-08-20T00:54:45.568Z,77.95
2022-08-20T00:57:59.003Z,78.07
2022-08-20T01:00:11.841Z,78.04
2022-08-20T01:02:42.359Z,77.95
2022-08-20T01:05:11.585Z,77.83
2022-08-20T01:07:42.028Z,77.68
2022-08-20T01:10:19.589Z,77.76
2022-08-20T01:12:49.251Z,77.93
2022-08-20T01:15:23.594Z,78.14
2022-08-20T01:17:58.480Z,78.36
2022-08-20T01:20:32.221Z,78.64
2022-08-20T01:23:32.516Z,78.71
2022-08-20T01:26:10.756Z,78.78
2022-08-20T01:28:59.692Z,78.89
2022-08-20T01:31:32.934Z,78.93
2022-08-20T01:34:04.019Z,79.00
2022-08-20T01:36:47.385Z,79.14
2022-08-20T01:39:21.542Z,79.21
2022-08-20T01:42:14.842Z,79.35
2022-08-20T01:44:45.072Z,79.49
2022-08-20T01:47:18.838Z,79.64
2022-08-20T01:49:52.858Z,79.82
2022-08-20T01:52:33.708Z,79.92
2022-08-20T01:55:03.597Z,80.06
2022-08-20T01:57:34.972Z,80.12
2022-08-20T02:00:19.601Z,80.10
2022-08-20T02:02:47.170Z,80.10
2022-08-20T02:05:16.888Z,80.24
2022-08-20T02:07:46.079Z,80.36
2022-08-20T02:10:17.061Z,80.33
2022-08-20T02:12:49.302Z,80.33
2022-08-20T02:15:18.864Z,80.36
2022-08-20T02:17:50.293Z,80.43
2022-08-20T02:20:23.218Z,80.54
2022-08-20T02:22:58.456Z,80.65
2022-08-20T02:25:31.411Z,80.75
2022-08-20T02:28:05.763Z,80.80
2022-08-20T02:30:39.367Z,80.74
2022-08-20T02:33:11.585Z,80.89
2022-08-20T02:35:42.456Z,81.08
2022-08-20T02:38:14.889Z,81.26
2022-08-20T02:40:45.230Z,81.45
2022-08-20T02:43:16.574Z,81.52
2022-08-20T02:45:46.240Z,81.48
2022-08-20T02:48:22.026Z,81.50
2022-08-20T02:50:56.358Z,81.56
2022-08-20T02:53:27.987Z,81.58
2022-08-20T02:55:56.985Z,81.66
2022-08-20T02:58:26.100Z,81.57
2022-08-20T03:00:56.721Z,81.57
2022-08-20T03:03:27.201Z,81.48
2022-08-20T03:05:58.382Z,81.31
2022-08-20T03:08:29.052Z,81.28
2022-08-20T03:10:59.103Z,81.19
2022-08-20T03:13:29.919Z,81.20
2022-08-20T03:16:00.972Z,81.14
2022-08-20T03:18:35.472Z,81.01
2022-08-20T03:21:06.339Z,81.09
2022-08-20T03:23:36.351Z,81.15
2022-08-20T03:26:09.149Z,81.24
2022-08-20T03:28:39.464Z,81.30
2022-08-20T03:31:10.106Z,81.21
2022-08-20T03:33:49.059Z,81.19
2022-08-20T03:36:13.567Z,81.20
2022-08-20T03:38:44.962Z,81.29
2022-08-20T03:41:16.089Z,81.34
2022-08-20T03:43:46.454Z,81.28
2022-08-20T03:46:23.103Z,81.35
2022-08-20T03:48:48.340Z,81.27
2022-08-20T03:51:19.542Z,80.98
2022-08-20T03:53:50.102Z,81.12
2022-08-20T03:56:19.175Z,81.12
2022-08-20T03:58:48.139Z,81.16
2022-08-20T04:01:44.844Z,81.05
2022-08-20T04:03:53.349Z,81.01
2022-08-20T04:06:20.771Z,80.97
2022-08-20T04:08:51.372Z,80.80
2022-08-20T04:11:21.393Z,80.78
2022-08-20T04:13:51.259Z,80.74
2022-08-20T04:16:22.158Z,80.96
2022-08-20T04:18:56.091Z,81.00
2022-08-20T04:21:24.655Z,80.93
2022-08-20T04:23:56.327Z,80.78
2022-08-20T04:26:25.564Z,80.62
2022-08-20T04:28:55.652Z,80.64
2022-08-20T04:31:27.387Z,80.50
2022-08-20T04:33:57.707Z,80.72
2022-08-20T04:36:28.171Z,80.92
2022-08-20T04:38:59.162Z,80.89
2022-08-20T04:41:28.676Z,80.69
2022-08-20T04:43:57.959Z,80.48
2022-08-20T04:46:27.576Z,80.51
2022-08-20T04:48:57.429Z,80.59
2022-08-20T04:51:27.564Z,80.41
2022-08-20T04:53:58.398Z,80.31
2022-08-20T04:56:35.594Z,80.07
2022-08-20T04:59:04.704Z,79.79
2022-08-20T05:01:34.476Z,79.74
2022-08-20T05:04:04.432Z,79.94
2022-08-20T05:06:35.070Z,80.00
2022-08-20T05:09:05.410Z,79.85
2022-08-20T05:11:36.925Z,79.56
2022-08-20T05:14:09.212Z,79.33
2022-08-20T05:16:40.719Z,79.23
2022-08-20T05:19:11.703Z,79.20
2022-08-20T05:21:41.285Z,78.71
2022-08-20T05:24:12.121Z,78.58
2022-08-20T05:26:42.483Z,78.25
2022-08-20T05:29:13.035Z,78.05
2022-08-20T05:31:43.385Z,77.81
2022-08-20T05:34:12.647Z,77.69
2022-08-20T05:36:45.395Z,77.46
2022-08-20T05:39:17.862Z,77.35
2022-08-20T05:41:49.445Z,76.95
2022-08-20T05:44:19.574Z,76.87
2022-08-20T05:46:49.857Z,76.66
2022-08-20T05:49:21.177Z,76.25
2022-08-20T05:51:51.396Z,76.18
2022-08-20T05:54:21.663Z,75.93
2022-08-20T05:56:52.155Z,75.79
2022-08-20T05:59:24.239Z,75.85
2022-08-20T06:01:53.799Z,75.69
2022-08-20T06:04:31.264Z,75.63
2022-08-20T06:07:06.645Z,75.46
2022-08-20T06:09:36.378Z,75.35
2022-08-20T06:12:08.372Z,75.19
2022-08-20T06:14:38.423Z,74.75
2022-08-20T06:17:15.283Z,74.20
2022-08-20T06:19:46.935Z,74.06
2022-08-20T06:22:18.343Z,73.91
2022-08-20T06:24:50.305Z,73.45
2022-08-20T06:27:22.142Z,73.14
2022-08-20T06:29:52.178Z,72.96
2022-08-20T06:32:31.965Z,72.71
2022-08-20T06:34:55.210Z,72.68
2022-08-20T06:37:30.963Z,72.35
2022-08-20T06:40:12.103Z,72.07
2022-08-20T06:42:48.224Z,71.84
2022-08-20T06:45:19.429Z,71.59
2022-08-20T06:47:49.955Z,71.45
2022-08-20T06:50:24.091Z,71.05
2022-08-20T06:52:54.390Z,70.78
2022-08-20T06:55:24.025Z,70.69
2022-08-20T06:58:02.309Z,69.67
2022-08-20T07:00:32.952Z,69.63
2022-08-20T07:03:02.140Z,69.29
2022-08-20T07:05:34.535Z,69.37
2022-08-20T07:08:04.997Z,69.28
2022-08-20T07:10:35.251Z,69.24
2022-08-20T07:13:06.370Z,69.05
2022-08-20T07:15:38.241Z,68.79
2022-08-20T07:18:07.845Z,68.70
2022-08-20T07:20:38.062Z,68.69
2022-08-20T07:23:08.043Z,68.37
2022-08-20T07:25:37.038Z,68.22
2022-08-20T07:28:13.713Z,67.96
2022-08-20T07:31:12.212Z,67.09
2022-08-20T07:33:34.067Z,67.49
2022-08-20T07:36:05.207Z,67.31
2022-08-20T07:38:35.500Z,66.64
2022-08-20T07:41:11.324Z,66.40
2022-08-20T07:43:42.084Z,66.33
2022-08-20T07:46:12.578Z,65.88
2022-08-20T07:48:44.965Z,65.84
2022-08-20T07:51:19.957Z,65.33
2022-08-20T07:53:55.009Z,65.09
2022-08-20T07:56:28.133Z,65.19
2022-08-20T07:59:02.083Z,65.23
2022-08-20T08:01:34.913Z,64.42
2022-08-20T08:04:04.794Z,63.66
2022-08-20T08:06:34.490Z,64.03
2022-08-20T08:09:10.567Z,63.66
2022-08-20T08:11:47.001Z,63.60
2022-08-20T08:14:15.664Z,63.66
2022-08-20T08:16:45.416Z,63.34
2022-08-20T08:19:14.833Z,63.60
2022-08-20T08:21:44.884Z,62.94
2022-08-20T08:24:20.290Z,62.71
2022-08-20T08:26:47.054Z,62.52
2022-08-20T08:29:16.107Z,62.29
2022-08-20T08:31:46.369Z,62.59
2022-08-20T08:34:16.613Z,62.74
2022-08-20T08:36:45.440Z,62.52
2022-08-20T08:39:14.518Z,62.22
2022-08-20T08:41:49.690Z,61.58
2022-08-20T08:44:28.169Z,61.60
2022-08-20T08:47:00.725Z,60.83
2022-08-20T08:49:37.289Z,60.66
2022-08-20T08:52:11.526Z,60.26
2022-08-20T08:54:45.344Z,59.26
2022-08-20T08:57:16.339Z,58.47
2022-08-20T09:00:03.460Z,58.32
2022-08-20T09:02:21.905Z,58.32
2022-08-20T09:04:51.849Z,58.13
2022-08-20T09:07:23.373Z,57.67
2022-08-20T09:09:53.086Z,58.03
2022-08-20T09:12:26.856Z,57.48
2022-08-20T09:14:55.757Z,57.33
2022-08-20T09:17:24.947Z,56.44
2022-08-20T09:19:53.963Z,55.90
2022-08-20T09:22:25.034Z,54.84
2022-08-20T09:24:55.969Z,54.02
2022-08-20T09:27:25.364Z,53.82
2022-08-20T09:29:55.605Z,54.13
2022-08-20T09:32:24.962Z,54.20
2022-08-20T09:34:56.482Z,53.37
2022-08-20T09:37:35.076Z,53.89
2022-08-20T09:40:00.646Z,54.01
2022-08-20T09:42:32.104Z,54.42
2022-08-20T09:45:02.189Z,54.57
2022-08-20T09:47:31.704Z,54.59
2022-08-20T09:50:01.115Z,55.27
2022-08-20T09:52:43.020Z,55.48
2022-08-20T09:55:35.184Z,55.31
2022-08-20T09:58:12.215Z,55.94
2022-08-20T10:00:41.295Z,55.63
2022-08-20T10:03:10.768Z,55.92
2022-08-20T10:05:40.438Z,55.88
2022-08-20T10:08:10.485Z,55.86
2022-08-20T10:10:39.638Z,55.90
2022-08-20T10:13:09.579Z,55.74
2022-08-20T10:15:41.851Z,55.11
2022-08-20T10:18:12.472Z,55.36
2022-08-20T10:20:41.650Z,55.08
2022-08-20T10:23:11.695Z,55.04
2022-08-20T10:25:41.790Z,54.80
2022-08-20T10:28:11.873Z,55.22
2022-08-20T10:30:42.022Z,55.27
2022-08-20T10:33:11.767Z,55.26
2022-08-20T10:35:41.594Z,55.01
2022-08-20T10:38:11.158Z,55.41
2022-08-20T10:40:41.246Z,55.49
2022-08-20T10:43:12.266Z,55.78
2022-08-20T10:45:41.805Z,56.26
2022-08-20T10:48:11.012Z,56.68
2022-08-20T10:50:40.293Z,57.00
2022-08-20T10:53:08.944Z,57.26
2022-08-20T10:55:38.728Z,57.89
2022-08-20T10:58:08.453Z,58.05
2022-08-20T11:00:40.370Z,58.16
2022-08-20T11:03:10.924Z,58.50
2022-08-20T11:05:43.020Z,58.70
2022-08-20T11:08:11.608Z,58.97
2022-08-20T11:10:41.857Z,58.87
2022-08-20T11:13:12.447Z,59.09
2022-08-20T11:15:45.246Z,59.04
2022-08-20T11:18:14.843Z,59.35
2022-08-20T11:20:44.497Z,59.56
2022-08-20T11:23:13.861Z,59.71
2022-08-20T11:25:42.821Z,59.77
2022-08-20T11:28:12.856Z,59.83
2022-08-20T11:30:41.883Z,59.81
2022-08-20T11:33:11.196Z,59.57
2022-08-20T11:35:48.101Z,59.33
2022-08-20T11:38:13.100Z,59.05
2022-08-20T11:40:42.455Z,58.45
2022-08-20T11:43:16.227Z,58.40
2022-08-20T11:45:45.467Z,58.25
2022-08-20T11:48:15.265Z,58.37
2022-08-20T11:50:45.235Z,58.08
2022-08-20T11:53:14.939Z,57.63
2022-08-20T11:55:45.331Z,57.07
2022-08-20T11:58:14.394Z,56.54
2022-08-20T12:00:43.574Z,56.26
2022-08-20T12:03:13.445Z,55.94
2022-08-20T12:05:45.007Z,55.82
2022-08-20T12:08:27.568Z,55.44
2022-08-20T12:10:45.351Z,55.72
2022-08-20T12:13:14.111Z,55.55
2022-08-20T12:15:44.308Z,55.64
2022-08-20T12:22:17.626Z,56.33
2022-08-20T12:24:42.965Z,56.64
2022-08-20T12:27:21.421Z,56.91
2022-08-20T12:29:52.890Z,56.80
2022-08-20T12:32:22.776Z,56.99
2022-08-20T12:34:52.161Z,57.22
2022-08-20T12:37:23.972Z,57.62
2022-08-20T12:39:56.225Z,57.93
2022-08-20T12:42:25.494Z,57.79
2022-08-20T12:45:02.213Z,57.84
2022-08-20T12:47:34.073Z,57.96
2022-08-20T12:50:13.456Z,57.67
2022-08-20T12:52:43.388Z,57.54
2022-08-20T12:55:14.214Z,57.39
2022-08-20T12:57:51.413Z,57.43
2022-08-20T13:00:28.499Z,57.20
2022-08-20T13:03:00.014Z,57.08
2022-08-20T13:05:29.988Z,57.46
2022-08-20T13:08:00.255Z,57.71
2022-08-20T13:10:31.556Z,58.07
2022-08-20T13:13:02.205Z,58.25
2022-08-20T13:15:32.250Z,58.49
2022-08-20T13:18:02.561Z,58.52
2022-08-20T13:20:34.616Z,58.71
2022-08-20T13:23:07.061Z,58.72
2022-08-20T13:25:35.795Z,58.80
2022-08-20T13:28:05.403Z,58.82
2022-08-20T13:30:38.084Z,58.91
2022-08-20T13:33:08.272Z,58.70
2022-08-20T13:35:37.020Z,58.97
2022-08-20T13:38:06.255Z,59.11
2022-08-20T13:40:35.795Z,59.20
2022-08-20T13:43:07.427Z,59.36
2022-08-20T13:45:37.170Z,59.35
2022-08-20T13:48:08.290Z,59.51
2022-08-20T13:50:38.247Z,59.43
2022-08-20T13:53:07.548Z,59.56
2022-08-20T13:55:38.564Z,59.64
2022-08-20T13:58:08.099Z,59.72
2022-08-20T14:00:37.880Z,59.46
2022-08-20T14:03:07.172Z,59.41
2022-08-20T14:05:37.336Z,59.28
2022-08-20T14:08:14.126Z,59.28
2022-08-20T14:10:44.451Z,59.21
2022-08-20T14:13:16.594Z,59.14
2022-08-20T14:15:46.215Z,59.33
2022-08-20T14:18:15.363Z,59.32
2022-08-20T14:20:45.650Z,59.78
2022-08-20T14:23:14.890Z,60.00
2022-08-20T14:25:46.468Z,59.91
2022-08-20T14:28:21.066Z,60.02
2022-08-20T14:30:52.906Z,59.89
2022-08-20T14:33:23.623Z,59.94
2022-08-20T14:35:54.328Z,59.99
2022-08-20T14:38:23.925Z,60.17
2022-08-20T14:40:53.825Z,60.24
2022-08-20T14:43:23.664Z,60.58
2022-08-20T14:45:52.802Z,60.69
2022-08-20T14:48:23.724Z,60.94
2022-08-20T14:50:55.139Z,60.68
2022-08-20T14:53:24.345Z,60.56
2022-08-20T14:55:53.349Z,60.56
2022-08-20T14:58:22.377Z,60.73
2022-08-20T15:00:52.856Z,60.73
2022-08-20T15:03:23.554Z,60.77
2022-08-20T15:05:53.497Z,61.03
2022-08-20T15:08:23.543Z,61.17
2022-08-20T15:10:54.437Z,61.06
2022-08-20T15:13:25.304Z,61.02
2022-08-20T15:16:16.492Z,61.02
2022-08-20T15:18:45.877Z,61.21
2022-08-20T15:21:21.427Z,61.28
2022-08-20T15:23:49.219Z,61.61
2022-08-20T15:26:18.551Z,61.74
2022-08-20T15:28:48.551Z,61.75
2022-08-20T15:31:18.678Z,61.84
2022-08-20T15:33:47.719Z,62.02
2022-08-20T15:36:16.584Z,62.57
2022-08-20T15:38:45.573Z,62.91
2022-08-20T15:41:16.575Z,63.84
2022-08-20T15:43:45.163Z,64.03
2022-08-20T15:46:15.578Z,65.17
2022-08-20T15:48:46.490Z,65.26
2022-08-20T15:51:35.960Z,66.01
2022-08-20T15:54:15.817Z,66.96
2022-08-20T15:56:59.446Z,66.97
2022-08-20T15:59:37.241Z,67.22
2022-08-20T16:02:27.038Z,67.84
2022-08-20T16:05:51.420Z,68.41
2022-08-20T16:09:05.686Z,69.78
2022-08-20T16:11:53.258Z,70.75
2022-08-20T16:14:26.622Z,71.70
2022-08-20T16:17:01.686Z,72.51
2022-08-20T16:19:56.827Z,72.70
2022-08-20T16:22:28.440Z,72.96
2022-08-20T16:24:58.116Z,72.38
2022-08-20T16:27:47.769Z,72.52
2022-08-20T16:30:27.179Z,72.94
2022-08-20T16:33:03.764Z,73.36
2022-08-20T16:35:40.963Z,73.67
2022-08-20T16:38:42.924Z,74.38
2022-08-20T16:41:18.477Z,74.82
2022-08-20T16:43:54.811Z,74.99
2022-08-20T16:46:31.673Z,75.09
2022-08-20T16:49:05.748Z,74.72
2022-08-20T16:51:43.101Z,74.77
2022-08-20T16:54:13.474Z,73.66
2022-08-20T16:56:48.037Z,73.47
2022-08-20T16:59:26.741Z,73.21
2022-08-20T17:01:54.650Z,72.92
2022-08-20T17:04:26.326Z,72.92
2022-08-20T17:06:55.650Z,72.98
2022-08-20T17:09:40.486Z,73.09
2022-08-20T17:12:27.972Z,73.39
2022-08-20T17:14:59.354Z,73.36
2022-08-20T17:17:36.657Z,73.18
2022-08-20T17:20:20.251Z,73.19
2022-08-20T17:22:53.426Z,73.18
2022-08-20T17:25:35.462Z,73.28
2022-08-20T17:28:15.907Z,73.40
2022-08-20T17:30:45.919Z,72.95
2022-08-20T17:33:32.333Z,72.81
2022-08-20T17:36:06.630Z,72.85
2022-08-20T17:38:50.524Z,72.73
2022-08-20T17:41:23.775Z,72.68
2022-08-20T17:44:08.534Z,72.82
2022-08-20T17:46:44.610Z,72.94
2022-08-20T17:49:19.079Z,73.08
2022-08-20T17:51:54.158Z,73.26
2022-08-20T17:54:27.029Z,73.37
2022-08-20T17:57:05.212Z,73.55
2022-08-20T18:00:00.081Z,73.47
2022-08-20T18:02:13.178Z,73.35
2022-08-20T18:04:42.406Z,73.33
2022-08-20T18:07:23.052Z,73.27
2022-08-20T18:10:16.211Z,73.01
2022-08-20T18:13:12.005Z,73.21
2022-08-20T18:15:46.757Z,73.95
2022-08-20T18:18:33.300Z,73.95
2022-08-20T18:21:49.499Z,73.87
2022-08-20T18:24:32.903Z,73.67
2022-08-20T18:27:03.388Z,73.60
2022-08-20T18:29:36.990Z,73.53
2022-08-20T18:32:10.259Z,73.39
2022-08-20T18:34:41.752Z,73.28
2022-08-20T18:37:19.730Z,73.16
2022-08-20T18:39:51.122Z,73.17
2022-08-20T18:42:36.336Z,73.16
2022-08-20T18:45:07.010Z,73.08
2022-08-20T18:47:42.240Z,72.94
2022-08-20T18:50:40.767Z,72.74
2022-08-20T18:53:24.313Z,73.04
2022-08-20T18:56:09.286Z,73.43
2022-08-20T18:59:01.549Z,73.56
2022-08-20T19:01:32.013Z,73.55
2022-08-20T19:04:03.069Z,73.59
2022-08-20T19:06:44.279Z,73.49
2022-08-20T19:10:12.940Z,73.35
2022-08-20T19:13:05.180Z,73.25
2022-08-20T19:15:40.272Z,73.10
2022-08-20T19:18:24.311Z,73.17
2022-08-20T19:21:01.516Z,73.23
2022-08-20T19:23:36.057Z,73.43
2022-08-20T19:26:25.158Z,73.63
2022-08-20T19:28:52.570Z,73.68
2022-08-20T19:31:29.781Z,73.69
2022-08-20T19:34:21.926Z,73.80
2022-08-20T19:36:46.430Z,73.88
2022-08-20T19:39:19.872Z,74.08
2022-08-20T19:42:07.102Z,74.18
2022-08-20T19:44:47.003Z,74.34
2022-08-20T19:47:43.864Z,74.64
2022-08-20T19:50:25.187Z,74.79
2022-08-20T19:53:03.145Z,74.90
2022-08-20T19:55:35.139Z,74.90
2022-08-20T19:58:25.890Z,74.86
2022-08-20T20:00:50.035Z,74.68
2022-08-20T20:03:24.160Z,74.69
2022-08-20T20:06:17.483Z,74.83
2022-08-20T20:09:03.862Z,74.96
2022-08-20T20:11:38.045Z,75.21
2022-08-20T20:14:11.288Z,75.27
2022-08-20T20:16:45.361Z,75.21
2022-08-20T20:19:26.262Z,75.22
2022-08-20T20:21:50.712Z,75.33
2022-08-20T20:24:32.612Z,75.39
2022-08-20T20:27:02.273Z,75.31
2022-08-20T20:29:36.289Z,75.22
2022-08-20T20:32:16.331Z,75.05
2022-08-20T20:34:55.706Z,75.16
2022-08-20T20:37:39.183Z,75.30
2022-08-20T20:40:19.018Z,75.46
2022-08-20T20:43:01.136Z,75.98
2022-08-20T20:45:44.135Z,76.09
2022-08-20T20:48:21.011Z,77.02
2022-08-20T20:50:51.320Z,77.99
2022-08-20T20:53:53.111Z,78.16
2022-08-20T20:56:07.450Z,78.56
2022-08-20T20:58:38.235Z,78.36
2022-08-20T21:01:07.457Z,78.45
2022-08-20T21:03:36.108Z,78.72
2022-08-20T21:06:05.290Z,78.53
2022-08-20T21:08:35.356Z,78.28
2022-08-20T21:11:05.409Z,77.79
2022-08-20T21:13:35.043Z,77.48
2022-08-20T21:16:07.058Z,77.45
2022-08-20T21:18:37.242Z,77.51
2022-08-20T21:21:08.142Z,77.39
2022-08-20T21:23:40.490Z,77.23
2022-08-20T21:26:10.105Z,77.07
2022-08-20T21:28:39.734Z,77.08
2022-08-20T21:31:09.083Z,76.86
2022-08-20T21:33:39.551Z,76.92
2022-08-20T21:36:09.169Z,77.11
2022-08-20T21:38:39.533Z,77.09
2022-08-20T21:41:09.472Z,76.83
2022-08-20T21:43:39.788Z,76.76
2022-08-20T21:46:12.725Z,76.72
2022-08-20T21:48:47.676Z,76.73
2022-08-20T21:51:15.318Z,76.81
2022-08-20T21:53:45.115Z,77.11
2022-08-20T21:56:14.422Z,77.40
2022-08-20T21:58:45.545Z,77.66
2022-08-20T22:01:15.230Z,77.90
2022-08-20T22:03:44.615Z,78.04
2022-08-20T22:06:15.391Z,78.06
2022-08-20T22:08:45.329Z,78.10
2022-08-20T22:11:15.385Z,78.12
2022-08-20T22:13:46.987Z,78.12
2022-08-20T22:16:18.180Z,78.15
2022-08-20T22:18:48.057Z,78.43
2022-08-20T22:21:25.370Z,78.55
2022-08-20T22:23:57.599Z,78.58
2022-08-20T22:26:27.234Z,78.70
2022-08-20T22:28:58.216Z,78.75
2022-08-20T22:31:30.595Z,78.67
2022-08-20T22:34:00.608Z,78.70
2022-08-20T22:36:31.753Z,78.68
2022-08-20T22:39:01.862Z,78.78
2022-08-20T22:41:31.062Z,78.86
2022-08-20T22:44:00.911Z,78.95
2022-08-20T22:46:37.494Z,78.82
2022-08-20T22:49:10.624Z,78.76
2022-08-20T22:51:41.336Z,78.81
2022-08-20T22:54:12.472Z,78.72
2022-08-20T22:56:42.083Z,78.71
2022-08-20T22:59:13.920Z,78.63
2022-08-20T23:01:45.754Z,78.60
2022-08-20T23:04:31.334Z,78.55
2022-08-20T23:07:01.931Z,78.47
2022-08-20T23:09:32.363Z,78.43
2022-08-20T23:12:01.430Z,78.58
2022-08-20T23:14:31.491Z,78.86
2022-08-20T23:17:08.083Z,79.01
2022-08-20T23:19:38.000Z,78.92
2022-08-20T23:22:07.998Z,79.08
2022-08-20T23:24:38.593Z,79.29
2022-08-20T23:27:08.611Z,79.19
2022-08-20T23:29:39.624Z,79.12
2022-08-20T23:32:11.686Z,79.07
2022-08-20T23:34:41.367Z,79.08
2022-08-20T23:37:11.023Z,78.98
2022-08-20T23:39:39.994Z,79.11
2022-08-20T23:42:10.902Z,79.01
2022-08-20T23:44:40.554Z,78.92
2022-08-20T23:47:10.787Z,78.77
2022-08-20T23:49:40.277Z,78.67
2022-08-20T23:52:10.136Z,78.66
2022-08-20T23:54:39.537Z,78.61
2022-08-20T23:57:09.852Z,78.67
2022-08-20T23:59:40.074Z,78.60
